Observation data for Jayton on 06/14/2019      Previous  Date  Next       Current Mesonet Observations  Soil Data  Daily Summary Page  Observations in Plain Language
KJTS 140500Z 14008KT 23/13 A2999 RMK A01 T02340125  RH  053%=      5-min Rain = 0
KJTS 140505Z 15009KT 23/13 A30 RMK A01 T02310126  RH  054%=      5-min Rain = 0
KJTS 140510Z 14009KT 23/13 A30 RMK A01 T02290126  RH  054%=      5-min Rain = 0
KJTS 140515Z 14010KT 23/13 A2999 RMK A01 T02290126  RH  054%=      5-min Rain = 0
KJTS 140520Z 15009KT 23/13 A2999 RMK A01 T02280125  RH  054%=      5-min Rain = 0
KJTS 140525Z 15007G12KT 23/13 A2999 RMK A01 T02260125  RH  055%=      5-min Rain = 0
KJTS 140530Z 15007KT 22/13 A30 RMK A01 T02240125  RH  056%=      5-min Rain = 0
KJTS 140535Z 16007KT 22/13 A30 RMK A01 T02230125  RH  056%=      5-min Rain = 0
KJTS 140540Z 16008KT 22/13 A3001 RMK A01 T02230125  RH  056%=      5-min Rain = 0
KJTS 140545Z 15009KT 22/13 A30 RMK A01 T02220126  RH  057%=      5-min Rain = 0
KJTS 140550Z 16009KT 22/13 A30 RMK A01 T02210126  RH  057%=      5-min Rain = 0
KJTS 140555Z 15010KT 22/13 A30 RMK A01 T02200127  RH  058%=      5-min Rain = 0
KJTS 140600Z 15011KT 22/13 A2999 RMK A01 T02190127  RH  058%=      5-min Rain = 0
KJTS 140605Z 15011KT 22/13 A2999 RMK A01 T02180128  RH  059%=      5-min Rain = 0
KJTS 140610Z 15011KT 22/13 A2999 RMK A01 T02190128  RH  058%=      5-min Rain = 0
KJTS 140615Z 15009KT 22/13 A2999 RMK A01 T02180128  RH  059%=      5-min Rain = 0
KJTS 140620Z 15009KT 22/13 A2999 RMK A01 T02160129  RH  060%=      5-min Rain = 0
KJTS 140625Z 15009KT 22/13 A2999 RMK A01 T02150129  RH  060%=      5-min Rain = 0
KJTS 140630Z 15009KT 21/13 A2999 RMK A01 T02140129  RH  061%=      5-min Rain = 0
KJTS 140635Z 15009KT 21/13 A2999 RMK A01 T02130129  RH  061%=      5-min Rain = 0
KJTS 140640Z 15009KT 21/13 A2999 RMK A01 T02130129  RH  061%=      5-min Rain = 0
KJTS 140645Z 15008KT 21/13 A2999 RMK A01 T02130130  RH  061%=      5-min Rain = 0
KJTS 140650Z 15009KT 21/13 A2999 RMK A01 T02130130  RH  061%=      5-min Rain = 0
KJTS 140655Z 15008KT 21/13 A2999 RMK A01 T02130130  RH  062%=      5-min Rain = 0
KJTS 140700Z 14009KT 21/13 A2998 RMK A01 T02120130  RH  062%=      5-min Rain = 0
KJTS 140705Z 14009KT 21/13 A2998 RMK A01 T02120130  RH  062%=      5-min Rain = 0
KJTS 140710Z 15008KT 21/13 A2998 RMK A01 T02120130  RH  062%=      5-min Rain = 0
KJTS 140715Z 15008KT 21/13 A2998 RMK A01 T02120130  RH  062%=      5-min Rain = 0
KJTS 140720Z 15008KT 21/13 A2998 RMK A01 T02110130  RH  062%=      5-min Rain = 0
KJTS 140725Z 14008KT 21/13 A2998 RMK A01 T02100131  RH  063%=      5-min Rain = 0
KJTS 140730Z 14009KT 21/13 A2998 RMK A01 T02100131  RH  063%=      5-min Rain = 0
KJTS 140735Z 14008KT 21/13 A2998 RMK A01 T02090132  RH  064%=      5-min Rain = 0
KJTS 140740Z 13008KT 21/13 A2998 RMK A01 T02080132  RH  064%=      5-min Rain = 0
KJTS 140745Z 12008KT 21/13 A2998 RMK A01 T02070133  RH  065%=      5-min Rain = 0
KJTS 140750Z 12007KT 20/13 A2998 RMK A01 T02040134  RH  067%=      5-min Rain = 0
KJTS 140755Z 11007KT 20/14 A2998 RMK A01 T02010135  RH  069%=      5-min Rain = 0
KJTS 140800Z 12007KT 20/14 A2998 RMK A01 T01980136  RH  070%=      5-min Rain = 0
KJTS 140805Z 12007KT 20/14 A2998 RMK A01 T01970136  RH  071%=      5-min Rain = 0
KJTS 140810Z 12007KT 20/14 A2997 RMK A01 T01980137  RH  070%=      5-min Rain = 0
KJTS 140815Z 12008KT 20/14 A2997 RMK A01 T02000137  RH  070%=      5-min Rain = 0
KJTS 140820Z 13008KT 20/14 A2997 RMK A01 T02020137  RH  069%=      5-min Rain = 0
KJTS 140825Z 13007KT 20/14 A2997 RMK A01 T02020137  RH  069%=      5-min Rain = 0
KJTS 140830Z 13007KT 20/14 A2997 RMK A01 T02010137  RH  069%=      5-min Rain = 0
KJTS 140835Z 14006KT 20/14 A2998 RMK A01 T02010137  RH  069%=      5-min Rain = 0
KJTS 140840Z 13006KT 20/14 A2998 RMK A01 T02000137  RH  070%=      5-min Rain = 0
KJTS 140845Z 13006KT 20/14 A2997 RMK A01 T01980138  RH  071%=      5-min Rain = 0
KJTS 140850Z 13005KT 20/14 A2998 RMK A01 T01960138  RH  072%=      5-min Rain = 0
KJTS 140855Z 12005KT 19/14 A2998 RMK A01 T01930139  RH  074%=      5-min Rain = 0
KJTS 140900Z 10005KT 19/14 A2998 RMK A01 T01890139  RH  076%=      5-min Rain = 0
KJTS 140905Z 06005KT 19/14 A2998 RMK A01 T01900138  RH  075%=      5-min Rain = 0
KJTS 140910Z 03006KT 19/14 A30 RMK A01 T01920138  RH  074%=      5-min Rain = 0
KJTS 140915Z 01008KT 19/14 A3001 RMK A01 T01930138  RH  074%=      5-min Rain = 0
KJTS 140920Z 01007KT 19/14 A3001 RMK A01 T01930138  RH  073%=      5-min Rain = 0
KJTS 140925Z 03005KT 20/14 A3001 RMK A01 T01950137  RH  072%=      5-min Rain = 0
KJTS 140930Z 03006KT 20/14 A3001 RMK A01 T01950137  RH  072%=      5-min Rain = 0
KJTS 140935Z 01009KT 19/14 A3002 RMK A01 T01940137  RH  073%=      5-min Rain = 0
KJTS 140940Z 02007KT 19/14 A3002 RMK A01 T01940137  RH  072%=      5-min Rain = 0
KJTS 140945Z 05006KT 19/14 A3001 RMK A01 T01940137  RH  073%=      5-min Rain = 0
KJTS 140950Z 08006KT 19/14 A30 RMK A01 T01910138  RH  074%=      5-min Rain = 0
KJTS 140955Z 05005KT 19/14 A30 RMK A01 T01890137  RH  075%=      5-min Rain = 0
KJTS 141000Z 03007KT 19/14 A30 RMK A01 T01880138  RH  076%=      5-min Rain = 0
KJTS 141005Z 04006KT 19/14 A30 RMK A01 T01870139  RH  076%=      5-min Rain = 0
KJTS 141010Z 08006KT 18/14 A2999 RMK A01 T01840139  RH  078%=      5-min Rain = 0
KJTS 141015Z 09007KT 18/14 A2999 RMK A01 T01810139  RH  079%=      5-min Rain = 0
KJTS 141020Z 08007KT 18/14 A2999 RMK A01 T01830138  RH  078%=      5-min Rain = 0
KJTS 141025Z 08008KT 19/14 A2999 RMK A01 T01850138  RH  077%=      5-min Rain = 0
KJTS 141030Z 08008KT 18/14 A2998 RMK A01 T01840138  RH  078%=      5-min Rain = 0
KJTS 141035Z 09009KT 18/14 A2998 RMK A01 T01840138  RH  078%=      5-min Rain = 0
KJTS 141040Z 08009KT 18/14 A2998 RMK A01 T01830138  RH  078%=      5-min Rain = 0
KJTS 141045Z 08008KT 18/14 A2998 RMK A01 T01830138  RH  078%=      5-min Rain = 0
KJTS 141050Z 08007KT 18/14 A2998 RMK A01 T01830138  RH  078%=      5-min Rain = 0
KJTS 141055Z 08007KT 18/14 A2998 RMK A01 T01820138  RH  078%=      5-min Rain = 0
KJTS 141100Z 09007KT 18/14 A2998 RMK A01 T01810138  RH  079%=      5-min Rain = 0
KJTS 141105Z 10007KT 18/14 A2998 RMK A01 T01780138  RH  080%=      5-min Rain = 0
KJTS 141110Z 10007KT 18/14 A2998 RMK A01 T01790139  RH  081%=      5-min Rain = 0
KJTS 141115Z 10006KT 18/14 A2999 RMK A01 T01780139  RH  081%=      5-min Rain = 0
KJTS 141120Z 10007KT 18/14 A2999 RMK A01 T01790140  RH  081%=      5-min Rain = 0
KJTS 141125Z 09007KT 18/14 A2999 RMK A01 T01790141  RH  082%=      5-min Rain = 0
KJTS 141130Z 10008KT 18/14 A2999 RMK A01 T01790141  RH  082%=      5-min Rain = 0
KJTS 141135Z 11009KT 18/14 A2998 RMK A01 T01800142  RH  082%=      5-min Rain = 0
KJTS 141140Z 11009KT 18/14 A2998 RMK A01 T01810142  RH  082%=      5-min Rain = 0
KJTS 141145Z 11008KT 18/14 A2998 RMK A01 T01820143  RH  081%=      5-min Rain = 0
KJTS 141150Z 11008KT 18/14 A2998 RMK A01 T01830143  RH  081%=      5-min Rain = 0
KJTS 141155Z 11008KT 18/14 A2998 RMK A01 T01830143  RH  081%=      5-min Rain = 0
KJTS 141200Z 11007KT 18/15 A2998 RMK A01 T01840145  RH  081%=      5-min Rain = 0
KJTS 141205Z 12007KT 19/15 A2998 RMK A01 T01850146  RH  081%=      5-min Rain = 0
KJTS 141210Z 12008KT 19/15 A2998 RMK A01 T01860147  RH  081%=      5-min Rain = 0
KJTS 141215Z 12008KT 19/15 A2998 RMK A01 T01880148  RH  081%=      5-min Rain = 0
KJTS 141220Z 12008KT 19/15 A2999 RMK A01 T01890148  RH  081%=      5-min Rain = 0
KJTS 141225Z 12008KT 19/15 A2998 RMK A01 T01890149  RH  081%=      5-min Rain = 0
KJTS 141230Z 13008KT 19/15 A2998 RMK A01 T01890149  RH  081%=      5-min Rain = 0
KJTS 141235Z 13008KT 19/15 A2998 RMK A01 T01890150  RH  081%=      5-min Rain = 0
KJTS 141240Z 14007KT 19/15 A2998 RMK A01 T01900151  RH  082%=      5-min Rain = 0
KJTS 141245Z 14008KT 19/15 A2998 RMK A01 T01900151  RH  082%=      5-min Rain = 0
KJTS 141250Z 14008KT 19/15 A2998 RMK A01 T01910153  RH  082%=      5-min Rain = 0
KJTS 141255Z 14008KT 19/15 A2997 RMK A01 T01930154  RH  082%=      5-min Rain = 0
KJTS 141300Z 14010KT 20/16 A2997 RMK A01 T01950156  RH  082%=      5-min Rain = 0
KJTS 141305Z 15010KT 20/16 A2996 RMK A01 T01980158  RH  082%=      5-min Rain = 0
KJTS 141310Z 15011KT 20/16 A2996 RMK A01 T02020159  RH  080%=      5-min Rain = 0
KJTS 141315Z 15011KT 20/16 A2996 RMK A01 T02040160  RH  080%=      5-min Rain = 0
KJTS 141320Z 15010KT 21/16 A2996 RMK A01 T02050162  RH  080%=      5-min Rain = 0
KJTS 141325Z 15010KT 21/16 A2996 RMK A01 T02090164  RH  079%=      5-min Rain = 0
KJTS 141330Z 15011KT 22/17 A2995 RMK A01 T02150166  RH  077%=      5-min Rain = 0
KJTS 141335Z 16011KT 22/17 A2995 RMK A01 T02150167  RH  078%=      5-min Rain = 0
KJTS 141340Z 15011KT 22/17 A2994 RMK A01 T02160167  RH  078%=      5-min Rain = 0
KJTS 141345Z 16012KT 22/17 A2995 RMK A01 T02160167  RH  077%=      5-min Rain = 0
KJTS 141350Z 16010KT 22/17 A2994 RMK A01 T02190170  RH  077%=      5-min Rain = 0
KJTS 141355Z 16012KT 22/17 A2994 RMK A01 T02220170  RH  076%=      5-min Rain = 0
KJTS 141400Z 16011G17KT 23/17 A2994 RMK A01 T02260172  RH  075%=      5-min Rain = 0
KJTS 141405Z 16012G18KT 23/17 A2994 RMK A01 T02300172  RH  074%=      5-min Rain = 0
KJTS 141410Z 17011G18KT 23/17 A2994 RMK A01 T02330174  RH  073%=      5-min Rain = 0
KJTS 141415Z 17011G19KT 24/18 A2993 RMK A01 T02380176  RH  072%=      5-min Rain = 0
KJTS 141420Z 17015G23KT 24/17 A2993 RMK A01 T02360173  RH  071%=      5-min Rain = 0
KJTS 141425Z 17015G21KT 24/17 A2993 RMK A01 T02370174  RH  071%=      5-min Rain = 0
KJTS 141430Z 18014G22KT 24/18 A2993 RMK A01 T02390175  RH  071%=      5-min Rain = 0
KJTS 141435Z 18014G19KT 24/18 A2993 RMK A01 T02420176  RH  070%=      5-min Rain = 0
KJTS 141440Z 18016G23KT 24/18 A2993 RMK A01 T02440176  RH  069%=      5-min Rain = 0
KJTS 141445Z 18014KT 25/18 A2993 RMK A01 T02490178  RH  068%=      5-min Rain = 0
KJTS 141450Z 18017KT 25/18 A2993 RMK A01 T02500177  RH  067%=      5-min Rain = 0
KJTS 141455Z 18015G21KT 25/18 A2993 RMK A01 T02500177  RH  067%=      5-min Rain = 0
KJTS 141500Z 19016G21KT 25/18 A2993 RMK A01 T02480176  RH  068%=      5-min Rain = 0
KJTS 141505Z 19019KT 25/18 A2992 RMK A01 T02490175  RH  067%=      5-min Rain = 0
KJTS 141510Z 19017G22KT 25/17 A2993 RMK A01 T02500174  RH  066%=      5-min Rain = 0
KJTS 141515Z 20015G20KT 25/18 A2993 RMK A01 T02540176  RH  066%=      5-min Rain = 0
KJTS 141520Z 19014G20KT 26/18 A2993 RMK A01 T02570177  RH  065%=      5-min Rain = 0
KJTS 141525Z 18016KT 26/18 A2992 RMK A01 T02560177  RH  065%=      5-min Rain = 0
KJTS 141530Z 19016G22KT 26/18 A2992 RMK A01 T02600177  RH  063%=      5-min Rain = 0
KJTS 141535Z 19014G20KT 27/18 A2992 RMK A01 T02660180  RH  062%=      5-min Rain = 0
KJTS 141540Z 20016G21KT 27/18 A2992 RMK A01 T02680179  RH  061%=      5-min Rain = 0
KJTS 141545Z 19018G24KT 27/18 A2992 RMK A01 T02710178  RH  060%=      5-min Rain = 0
KJTS 141550Z 20016G25KT 27/18 A2991 RMK A01 T02720179  RH  060%=      5-min Rain = 0
KJTS 141555Z 20019G24KT 28/18 A2991 RMK A01 T02770179  RH  058%=      5-min Rain = 0
KJTS 141600Z 19020G29KT 28/18 A2991 RMK A01 T02760177  RH  058%=      5-min Rain = 0
KJTS 141605Z 19017G23KT 27/18 A2991 RMK A01 T02720177  RH  059%=      5-min Rain = 0
KJTS 141610Z 19017G23KT 27/18 A2991 RMK A01 T02670177  RH  061%=      5-min Rain = 0
KJTS 141615Z 19015G21KT 27/18 A2991 RMK A01 T02670177  RH  061%=      5-min Rain = 0
KJTS 141620Z 20013G19KT 27/18 A2991 RMK A01 T02700181  RH  061%=      5-min Rain = 0
KJTS 141625Z 20013G19KT 27/18 A2991 RMK A01 T02690181  RH  062%=      5-min Rain = 0
KJTS 141630Z 21017G23KT 27/18 A2991 RMK A01 T02670177  RH  061%=      5-min Rain = 0
KJTS 141635Z 21017G25KT 27/18 A2991 RMK A01 T02730178  RH  059%=      5-min Rain = 0
KJTS 141640Z 21017G24KT 28/18 A2991 RMK A01 T02780179  RH  058%=      5-min Rain = 0
KJTS 141645Z 21017G23KT 27/18 A2991 RMK A01 T02740178  RH  059%=      5-min Rain = 0
KJTS 141650Z 20016G23KT 28/18 A2991 RMK A01 T02810182  RH  058%=      5-min Rain = 0
KJTS 141655Z 20017G24KT 28/18 A2991 RMK A01 T02820181  RH  057%=      5-min Rain = 0
KJTS 141700Z 20015G22KT 29/18 A2991 RMK A01 T02860183  RH  057%=      5-min Rain = 0
KJTS 141705Z 20016G23KT 28/18 A2991 RMK A01 T02830180  RH  057%=      5-min Rain = 0
KJTS 141710Z 20016G23KT 29/18 A299 RMK A01 T02850181  RH  056%=      5-min Rain = 0
KJTS 141715Z 20019G24KT 29/18 A299 RMK A01 T02850176  RH  054%=      5-min Rain = 0
KJTS 141720Z 20015G22KT 29/18 A299 RMK A01 T02870179  RH  055%=      5-min Rain = 0
KJTS 141725Z 20018G25KT 29/18 A299 RMK A01 T02850177  RH  055%=      5-min Rain = 0
KJTS 141730Z 20017G24KT 29/18 A299 RMK A01 T02870179  RH  055%=      5-min Rain = 0
KJTS 141735Z 20016G25KT 29/18 A299 RMK A01 T02850179  RH  055%=      5-min Rain = 0
KJTS 141740Z 20017G24KT 29/18 A299 RMK A01 T02870180  RH  055%=      5-min Rain = 0
KJTS 141745Z 20016G23KT 29/18 A299 RMK A01 T02860178  RH  055%=      5-min Rain = 0
KJTS 141750Z 20015G21KT 29/18 A299 RMK A01 T02890178  RH  054%=      5-min Rain = 0
KJTS 141755Z 20014G22KT 29/18 A2989 RMK A01 T02900181  RH  055%=      5-min Rain = 0
KJTS 141800Z 19013KT 30/19 A2989 RMK A01 T02960185  RH  054%=      5-min Rain = 0
KJTS 141805Z 19015G23KT 30/18 A2989 RMK A01 T02990182  RH  052%=      5-min Rain = 0
KJTS 141810Z 19020G27KT 30/17 A2989 RMK A01 T02970171  RH  049%=      5-min Rain = 0
KJTS 141815Z 20019G26KT 30/17 A2988 RMK A01 T02950168  RH  049%=      5-min Rain = 0
KJTS 141820Z 19018G23KT 30/17 A2988 RMK A01 T02980170  RH  049%=      5-min Rain = 0
KJTS 141825Z 19019G26KT 30/17 A2988 RMK A01 T03000170  RH  048%=      5-min Rain = 0
KJTS 141830Z 19017G24KT 30/17 A2988 RMK A01 T03000170  RH  048%=      5-min Rain = 0
KJTS 141835Z 19017G23KT 30/17 A2988 RMK A01 T03000172  RH  049%=      5-min Rain = 0
KJTS 141840Z 19017G22KT 30/17 A2987 RMK A01 T02990173  RH  049%=      5-min Rain = 0
KJTS 141845Z 20017G24KT 30/17 A2987 RMK A01 T03010172  RH  048%=      5-min Rain = 0
KJTS 141850Z 20018G24KT 30/17 A2987 RMK A01 T03030173  RH  048%=      5-min Rain = 0
KJTS 141855Z 19017G24KT 31/18 A2987 RMK A01 T03070177  RH  048%=      5-min Rain = 0
KJTS 141900Z 19018G23KT 31/17 A2986 RMK A01 T03080173  RH  047%=      5-min Rain = 0
KJTS 141905Z 19018G24KT 31/17 A2986 RMK A01 T03120174  RH  046%=      5-min Rain = 0
KJTS 141910Z 19017G22KT 32/18 A2986 RMK A01 T03170175  RH  045%=      5-min Rain = 0
KJTS 141915Z 18020G27KT 32/17 A2986 RMK A01 T03160174  RH  045%=      5-min Rain = 0
KJTS 141920Z 19018G24KT 32/18 A2986 RMK A01 T03170175  RH  045%=      5-min Rain = 0
KJTS 141925Z 20017G22KT 32/17 A2986 RMK A01 T03210172  RH  043%=      5-min Rain = 0
KJTS 141930Z 20017G23KT 32/17 A2985 RMK A01 T03220171  RH  043%=      5-min Rain = 0
KJTS 141935Z 19017G23KT 32/18 A2985 RMK A01 T03240175  RH  043%=      5-min Rain = 0
KJTS 141940Z 18018G24KT 32/17 A2985 RMK A01 T03240173  RH  043%=      5-min Rain = 0
KJTS 141945Z 18016G23KT 33/18 A2985 RMK A01 T03250176  RH  043%=      5-min Rain = 0
KJTS 141950Z 18017G23KT 33/17 A2985 RMK A01 T03260174  RH  043%=      5-min Rain = 0
KJTS 141955Z 18019G28KT 33/17 A2984 RMK A01 T03280173  RH  042%=      5-min Rain = 0
KJTS 142000Z 18017G23KT 33/17 A2984 RMK A01 T03290174  RH  042%=      5-min Rain = 0
KJTS 142005Z 20015G22KT 33/18 A2984 RMK A01 T03310176  RH  042%=      5-min Rain = 0
KJTS 142010Z 18016G21KT 33/18 A2984 RMK A01 T03320176  RH  042%=      5-min Rain = 0
KJTS 142015Z 18018KT 33/17 A2984 RMK A01 T03300174  RH  041%=      5-min Rain = 0
KJTS 142020Z 18017G23KT 33/18 A2983 RMK A01 T03320177  RH  042%=      5-min Rain = 0
KJTS 142025Z 19018G26KT 33/18 A2983 RMK A01 T03320175  RH  041%=      5-min Rain = 0
KJTS 142030Z 19018G26KT 33/17 A2983 RMK A01 T03330170  RH  040%=      5-min Rain = 0
KJTS 142035Z 18018G26KT 33/17 A2983 RMK A01 T03330170  RH  040%=      5-min Rain = 0
KJTS 142040Z 18017G25KT 34/17 A2983 RMK A01 T03360173  RH  040%=      5-min Rain = 0
KJTS 142045Z 19018G26KT 34/17 A2983 RMK A01 T03360171  RH  039%=      5-min Rain = 0
KJTS 142050Z 19016G23KT 34/17 A2983 RMK A01 T03370170  RH  039%=      5-min Rain = 0
KJTS 142055Z 18017G23KT 34/17 A2982 RMK A01 T03380172  RH  039%=      5-min Rain = 0
KJTS 142100Z 18014G21KT 34/17 A2982 RMK A01 T03390171  RH  039%=      5-min Rain = 0
KJTS 142105Z 18019G25KT 34/17 A2982 RMK A01 T03390170  RH  038%=      5-min Rain = 0
KJTS 142110Z 19018G27KT 34/17 A2982 RMK A01 T03380166  RH  038%=      5-min Rain = 0
KJTS 142115Z 19018G25KT 34/17 A2982 RMK A01 T03390168  RH  038%=      5-min Rain = 0
KJTS 142120Z 19018G24KT 34/17 A2982 RMK A01 T03400168  RH  038%=      5-min Rain = 0
KJTS 142125Z 19016G24KT 34/17 A2982 RMK A01 T03400168  RH  038%=      5-min Rain = 0
KJTS 142130Z 19016G22KT 34/17 A2981 RMK A01 T03410168  RH  038%=      5-min Rain = 0
KJTS 142135Z 18017G24KT 34/17 A2981 RMK A01 T03410170  RH  038%=      5-min Rain = 0
KJTS 142140Z 19018G23KT 34/17 A2981 RMK A01 T03390169  RH  038%=      5-min Rain = 0
KJTS 142145Z 18019G24KT 34/17 A2981 RMK A01 T03390170  RH  038%=      5-min Rain = 0
KJTS 142150Z 18017G25KT 34/17 A298 RMK A01 T03380171  RH  039%=      5-min Rain = 0
KJTS 142155Z 20017G24KT 34/17 A298 RMK A01 T03410173  RH  039%=      5-min Rain = 0
KJTS 142200Z 19017G24KT 34/17 A298 RMK A01 T03410169  RH  038%=      5-min Rain = 0
KJTS 142205Z 18016G21KT 34/17 A298 RMK A01 T03410172  RH  038%=      5-min Rain = 0
KJTS 142210Z 18015G21KT 34/17 A298 RMK A01 T03400171  RH  038%=      5-min Rain = 0
KJTS 142215Z 18015G22KT 34/17 A298 RMK A01 T03370173  RH  040%=      5-min Rain = 0
KJTS 142220Z 18016G24KT 34/17 A298 RMK A01 T03360169  RH  039%=      5-min Rain = 0
KJTS 142225Z 18015G23KT 34/17 A2979 RMK A01 T03350170  RH  039%=      5-min Rain = 0
KJTS 142230Z 18016G24KT 33/17 A2979 RMK A01 T03320165  RH  039%=      5-min Rain = 0
KJTS 142235Z 19015G20KT 33/17 A2979 RMK A01 T03280170  RH  041%=      5-min Rain = 0
KJTS 142240Z 19014KT 33/17 A2979 RMK A01 T03280168  RH  041%=      5-min Rain = 0
KJTS 142245Z 18012G18KT 33/17 A2979 RMK A01 T03270174  RH  042%=      5-min Rain = 0
KJTS 142250Z 18016G25KT 34/17 A2979 RMK A01 T03350172  RH  040%=      5-min Rain = 0
KJTS 142255Z 18015KT 33/17 A2978 RMK A01 T03340173  RH  040%=      5-min Rain = 0
KJTS 142300Z 18013G18KT 33/17 A2978 RMK A01 T03310173  RH  041%=      5-min Rain = 0
KJTS 142305Z 18012G19KT 33/17 A2978 RMK A01 T03250172  RH  042%=      5-min Rain = 0
KJTS 142310Z 18017G22KT 32/17 A2978 RMK A01 T03240166  RH  041%=      5-min Rain = 0
KJTS 142315Z 18014G24KT 33/17 A2978 RMK A01 T03250170  RH  042%=      5-min Rain = 0
KJTS 142320Z 17014G20KT 32/17 A2978 RMK A01 T03210173  RH  043%=      5-min Rain = 0
KJTS 142325Z 17013G20KT 32/17 A2978 RMK A01 T03210174  RH  044%=      5-min Rain = 0
KJTS 142330Z 17014KT 32/17 A2978 RMK A01 T03220171  RH  043%=      5-min Rain = 0
KJTS 142335Z 17011KT 32/17 A2978 RMK A01 T03220174  RH  043%=      5-min Rain = 0
KJTS 142340Z 17010KT 32/18 A2978 RMK A01 T03210178  RH  045%=      5-min Rain = 0
KJTS 142345Z 17011G16KT 32/18 A2978 RMK A01 T03220179  RH  045%=      5-min Rain = 0
KJTS 142350Z 17011G16KT 33/18 A2978 RMK A01 T03270181  RH  044%=      5-min Rain = 0
KJTS 142355Z 17012G17KT 33/18 A2977 RMK A01 T03290181  RH  044%=      5-min Rain = 0
KJTS 150000Z 17013G18KT 33/18 A2977 RMK A01 T03280179  RH  043%=      5-min Rain = 0
KJTS 150005Z 17013KT 32/18 A2977 RMK A01 T03240179  RH  044%=      5-min Rain = 0
KJTS 150010Z 17012G21KT 32/18 A2977 RMK A01 T03180179  RH  046%=      5-min Rain = 0
KJTS 150015Z 16013G19KT 32/18 A2976 RMK A01 T03160176  RH  046%=      5-min Rain = 0
KJTS 150020Z 17012G17KT 32/18 A2976 RMK A01 T03160178  RH  046%=      5-min Rain = 0
KJTS 150025Z 17014G21KT 32/18 A2976 RMK A01 T03180179  RH  046%=      5-min Rain = 0
KJTS 150030Z 16012G17KT 32/18 A2976 RMK A01 T03190179  RH  046%=      5-min Rain = 0
KJTS 150035Z 16012KT 32/18 A2976 RMK A01 T03180179  RH  046%=      5-min Rain = 0
KJTS 150040Z 16012G19KT 32/18 A2976 RMK A01 T03170180  RH  047%=      5-min Rain = 0
KJTS 150045Z 16010KT 32/18 A2976 RMK A01 T03150182  RH  048%=      5-min Rain = 0
KJTS 150050Z 16011G17KT 31/18 A2976 RMK A01 T03130181  RH  048%=      5-min Rain = 0
KJTS 150055Z 16012G18KT 31/18 A2976 RMK A01 T03130180  RH  048%=      5-min Rain = 0
KJTS 150100Z 16009G14KT 31/18 A2976 RMK A01 T03120181  RH  048%=      5-min Rain = 0
KJTS 150105Z 16012G17KT 31/18 A2977 RMK A01 T03090181  RH  049%=      5-min Rain = 0
KJTS 150110Z 16011G17KT 31/18 A2977 RMK A01 T03070179  RH  049%=      5-min Rain = 0
KJTS 150115Z 16011G17KT 31/18 A2977 RMK A01 T03050179  RH  049%=      5-min Rain = 0
KJTS 150120Z 16012KT 30/18 A2977 RMK A01 T03030177  RH  049%=      5-min Rain = 0
KJTS 150125Z 16013G19KT 30/18 A2977 RMK A01 T03030175  RH  049%=      5-min Rain = 0
KJTS 150130Z 16012KT 30/18 A2977 RMK A01 T03020175  RH  049%=      5-min Rain = 0
KJTS 150135Z 17013G19KT 30/17 A2977 RMK A01 T03010174  RH  049%=      5-min Rain = 0
KJTS 150140Z 17012G17KT 30/17 A2977 RMK A01 T03000174  RH  049%=      5-min Rain = 0
KJTS 150145Z 17012KT 30/17 A2978 RMK A01 T02990173  RH  049%=      5-min Rain = 0
KJTS 150150Z 17011G16KT 30/17 A2978 RMK A01 T02970173  RH  050%=      5-min Rain = 0
KJTS 150155Z 17011G16KT 30/17 A2978 RMK A01 T02950172  RH  050%=      5-min Rain = 0
KJTS 150200Z 17011KT 29/17 A2978 RMK A01 T02940172  RH  050%=      5-min Rain = 0
KJTS 150205Z 16012G17KT 29/17 A2978 RMK A01 T02930171  RH  050%=      5-min Rain = 0
KJTS 150210Z 17012G18KT 29/17 A2978 RMK A01 T02930171  RH  050%=      5-min Rain = 0
KJTS 150215Z 17011G16KT 29/17 A2978 RMK A01 T02900171  RH  051%=      5-min Rain = 0
KJTS 150220Z 17011KT 29/17 A2978 RMK A01 T02900171  RH  051%=      5-min Rain = 0
KJTS 150225Z 17012G17KT 29/17 A2977 RMK A01 T02890170  RH  051%=      5-min Rain = 0
KJTS 150230Z 17012G17KT 29/17 A2978 RMK A01 T02890170  RH  051%=      5-min Rain = 0
KJTS 150235Z 17014G20KT 29/17 A2977 RMK A01 T02880169  RH  051%=      5-min Rain = 0
KJTS 150240Z 18013G18KT 29/17 A2977 RMK A01 T02880169  RH  051%=      5-min Rain = 0
KJTS 150245Z 17013G18KT 29/17 A2977 RMK A01 T02870168  RH  051%=      5-min Rain = 0
KJTS 150250Z 18012G19KT 29/17 A2978 RMK A01 T02860168  RH  051%=      5-min Rain = 0
KJTS 150255Z 18013KT 29/17 A2978 RMK A01 T02860168  RH  051%=      5-min Rain = 0
KJTS 150300Z 18013G19KT 29/17 A2979 RMK A01 T02850168  RH  051%=      5-min Rain = 0
KJTS 150305Z 18016G21KT 29/17 A2979 RMK A01 T02860166  RH  051%=      5-min Rain = 0
KJTS 150310Z 17014G20KT 29/17 A2979 RMK A01 T02860166  RH  051%=      5-min Rain = 0
KJTS 150315Z 17013G19KT 29/17 A2979 RMK A01 T02850166  RH  051%=      5-min Rain = 0
KJTS 150320Z 17012G18KT 28/17 A2979 RMK A01 T02830167  RH  052%=      5-min Rain = 0
KJTS 150325Z 17012G19KT 28/17 A2979 RMK A01 T02820167  RH  052%=      5-min Rain = 0
KJTS 150330Z 17011G16KT 28/17 A298 RMK A01 T02800168  RH  053%=      5-min Rain = 0
KJTS 150335Z 17012G17KT 28/17 A298 RMK A01 T02790167  RH  053%=      5-min Rain = 0
KJTS 150340Z 18012KT 28/17 A298 RMK A01 T02790167  RH  053%=      5-min Rain = 0
KJTS 150345Z 18013G19KT 28/17 A2981 RMK A01 T02780167  RH  053%=      5-min Rain = 0
KJTS 150350Z 18013G19KT 28/17 A2981 RMK A01 T02770166  RH  053%=      5-min Rain = 0
KJTS 150355Z 18011KT 28/17 A2982 RMK A01 T02750167  RH  054%=      5-min Rain = 0
KJTS 150400Z 18010KT 27/17 A2982 RMK A01 T02730167  RH  055%=      5-min Rain = 0
KJTS 150405Z 18011KT 27/17 A2982 RMK A01 T02720167  RH  055%=      5-min Rain = 0
KJTS 150410Z 18011KT 27/17 A2982 RMK A01 T02720167  RH  055%=      5-min Rain = 0
KJTS 150415Z 18012KT 27/17 A2982 RMK A01 T02700167  RH  056%=      5-min Rain = 0
KJTS 150420Z 18011KT 27/17 A2982 RMK A01 T02700166  RH  056%=      5-min Rain = 0
KJTS 150425Z 18011KT 27/17 A2982 RMK A01 T02690166  RH  056%=      5-min Rain = 0
KJTS 150430Z 18011KT 27/17 A2982 RMK A01 T02680165  RH  056%=      5-min Rain = 0
KJTS 150435Z 18010KT 27/17 A2982 RMK A01 T02660165  RH  057%=      5-min Rain = 0
KJTS 150440Z 18011KT 27/16 A2982 RMK A01 T02670164  RH  056%=      5-min Rain = 0
KJTS 150445Z 18010KT 27/16 A2981 RMK A01 T02660164  RH  056%=      5-min Rain = 0
KJTS 150450Z 18012G19KT 27/16 A2981 RMK A01 T02660164  RH  056%=      5-min Rain = 0
KJTS 150455Z 18012G17KT 27/16 A2981 RMK A01 T02680163  RH  055%=      5-min Rain = 0

Page generated in 0.0155 seconds.